This is the latest recevied weather packets stored in our database for station/object M0HPP-13. If no packets are shown the sender has not sent any weather packets the latest 10 day(s).
| Time | Temp. | Humidity | Pressure | Rain* | Wind** | Luminosity | Snow |
|---|---|---|---|---|---|---|---|
| 1788202086 | 12.22° C | 82% | 1010.6 hPa | 0 mm | - | 12 W/m² | - |
| 1788201486 | 12.22° C | 81% | 1010.5 hPa | 0 mm | - | 16 W/m² | - |
| 1788200886 | 12.78° C | 81% | 1010.5 hPa | 0 mm | - | 19 W/m² | - |
| 1788200286 | 12.78° C | 79% | 1010.4 hPa | 0 mm | - | 27 W/m² | - |
| 1788199686 | 13.33° C | 75% | 1010.1 hPa | 0 mm | - | 53 W/m² | - |
| 1788199086 | 13.33° C | 74% | 1010 hPa | 0 mm | - | 68 W/m² | - |
| 1788198486 | 13.89° C | 73% | 1010 hPa | 0 mm | - | 83 W/m² | - |
| 1788197886 | 14.44° C | 71% | 1009.9 hPa | 0 mm | - | 103 W/m² | - |
| 1788197286 | 15° C | 68% | 1009.9 hPa | 0 mm | - | 121 W/m² | - |
| 1788196686 | 15° C | 68% | 1009.8 hPa | 0 mm | - | 166 W/m² | - |
| 1788196086 | 15.56° C | 67% | 1009.8 hPa | 0 mm | - | 175 W/m² | - |
| 1788195486 | 15.56° C | 66% | 1009.6 hPa | 0 mm | - | 203 W/m² | - |
| 1788194886 | 15.56° C | 68% | 1009.4 hPa | 0 mm | - | 237 W/m² | - |
| 1788194286 | 13.89° C | 75% | 1009.4 hPa | 0 mm | - | 132 W/m² | - |
| 1788193686 | 14.44° C | 74% | 1009.4 hPa | 0 mm | - | 134 W/m² | - |
| 1788193086 | 13.89° C | 75% | 1009.3 hPa | 0 mm | - | 153 W/m² | - |
| 1788192486 | 14.44° C | 76% | 1009.2 hPa | 0 mm | - | 107 W/m² | - |
| 1788191886 | 15° C | 76% | 1009.1 hPa | 0 mm | - | 127 W/m² | - |
| 1788191286 | 14.44° C | 78% | 1009 hPa | 0 mm | - | 228 W/m² | - |
| 1788190686 | 14.44° C | 80% | 1008.9 hPa | 0 mm | - | 201 W/m² | - |
| 1788190086 | 15° C | 78% | 1008.8 hPa | 0 mm | - | 144 W/m² | - |
| 1788188286 | 15.56° C | 81% | 1008.3 hPa | 0 mm | - | 222 W/m² | - |
| 1788187686 | 16.11° C | 76% | 1008.2 hPa | 0 mm | - | 249 W/m² | - |
| 1788187086 | 16.67° C | 76% | 1008.1 hPa | 0 mm | - | 359 W/m² | - |
| 1788186486 | 16.11° C | 78% | 1007.9 hPa | 0 mm | - | 347 W/m² | - |
* Rain latest hour (hover to see other rain measurements)
** Current wind speed in m/s (hover to see current wind gust speed)